createdAt,value
2023-05-06T00:03:58.313Z,6.70
2023-05-06T00:14:01.722Z,6.70
2023-05-06T00:24:07.118Z,6.80
2023-05-06T00:34:10.285Z,6.40
2023-05-06T00:44:15.201Z,6.40
2023-05-06T00:54:18.581Z,6.30
2023-05-06T01:04:24.175Z,6.30
2023-05-06T01:14:34.635Z,6.50
2023-05-06T01:24:40.798Z,6.50
2023-05-06T01:34:51.070Z,7.20
2023-05-06T01:44:56.357Z,6.80
2023-05-06T01:54:59.499Z,6.70
2023-05-06T02:05:04.066Z,6.30
2023-05-06T02:15:08.679Z,6.60
2023-05-06T02:25:13.402Z,5.70
2023-05-06T02:35:16.579Z,5.50
2023-05-06T02:45:21.412Z,5.40
2023-05-06T02:55:25.037Z,5.60
2023-05-06T03:05:29.560Z,5.60
2023-05-06T03:15:33.134Z,6.10
2023-05-06T03:25:37.722Z,5.80
2023-05-06T03:35:41.330Z,6.20
2023-05-06T03:45:47.515Z,6.10
2023-05-06T03:55:51.530Z,6.60
2023-05-06T04:05:56.257Z,6.20
2023-05-06T04:16:02.833Z,6.70
2023-05-06T04:26:18.371Z,7.00
2023-05-06T04:36:23.933Z,8.40
2023-05-06T04:47:03.814Z,8.30
2023-05-06T04:57:07.164Z,8.60
2023-05-06T05:07:13.398Z,9.00
2023-05-06T05:17:17.856Z,9.30
2023-05-06T05:27:24.873Z,9.60
2023-05-06T05:37:31.212Z,10.20
2023-05-06T05:47:36.554Z,11.30
2023-05-06T05:57:40.070Z,11.30
2023-05-06T06:07:45.673Z,10.90
2023-05-06T06:17:49.998Z,11.60
2023-05-06T06:27:55.884Z,12.60
2023-05-06T06:38:00.372Z,13.40
2023-05-06T06:48:05.418Z,14.70
2023-05-06T06:58:08.655Z,14.80
2023-05-06T07:08:13.212Z,14.20
2023-05-06T07:18:16.549Z,14.50
2023-05-06T07:28:21.216Z,14.40
2023-05-06T07:38:24.809Z,15.20
2023-05-06T07:48:29.468Z,16.50
2023-05-06T07:58:33.136Z,17.00
2023-05-06T08:08:37.644Z,17.20
2023-05-06T08:18:40.794Z,17.40
2023-05-06T08:28:45.342Z,18.20
2023-05-06T08:38:50.825Z,18.80
2023-05-06T08:48:55.580Z,20.40
2023-05-06T08:58:59.606Z,24.20
2023-05-06T09:09:04.379Z,25.60
2023-05-06T09:19:07.694Z,26.10
2023-05-06T09:29:12.362Z,29.60
2023-05-06T09:39:15.542Z,31.80
2023-05-06T09:49:20.299Z,28.20
2023-05-06T09:59:24.148Z,26.30
2023-05-06T10:09:28.799Z,29.00
2023-05-06T10:19:32.816Z,32.50
2023-05-06T10:29:38.863Z,27.70
2023-05-06T10:39:42.915Z,23.70
2023-05-06T10:50:20.065Z,20.40
2023-05-06T11:00:23.388Z,19.30
2023-05-06T11:10:34.458Z,18.20
2023-05-06T11:20:37.727Z,16.40
2023-05-06T11:30:43.919Z,15.20
2023-05-06T11:40:47.097Z,14.60
2023-05-06T11:50:51.954Z,14.30
2023-05-06T12:00:56.012Z,16.50
2023-05-06T12:11:02.314Z,13.50
2023-05-06T12:21:06.040Z,13.50
2023-05-06T12:31:21.091Z,13.50
2023-05-06T12:41:26.395Z,13.70
2023-05-06T12:51:32.420Z,13.70
2023-05-06T13:01:35.731Z,13.60
2023-05-06T13:11:40.411Z,13.30
2023-05-06T13:21:44.266Z,13.10
2023-05-06T13:31:48.783Z,12.80
2023-05-06T13:41:52.285Z,12.80
2023-05-06T13:51:57.435Z,12.80
2023-05-06T14:02:01.101Z,12.60
2023-05-06T14:12:06.234Z,12.60
2023-05-06T14:22:11.497Z,12.00
2023-05-06T14:32:16.143Z,12.00
2023-05-06T14:42:19.797Z,12.30
2023-05-06T14:52:24.370Z,12.90
2023-05-06T15:02:27.626Z,13.60
2023-05-06T15:12:32.159Z,13.50
2023-05-06T15:22:36.721Z,13.70
2023-05-06T15:32:43.397Z,14.20
2023-05-06T15:42:46.689Z,14.80
2023-05-06T15:52:51.202Z,15.30
2023-05-06T16:02:54.602Z,14.80
2023-05-06T16:12:59.446Z,14.30
2023-05-06T16:23:02.885Z,14.00
2023-05-06T16:33:07.806Z,14.10
2023-05-06T16:43:11.784Z,14.00
2023-05-06T16:53:17.423Z,13.50
2023-05-06T17:03:20.708Z,12.70
2023-05-06T17:13:25.358Z,12.30
2023-05-06T17:23:28.596Z,12.10
2023-05-06T17:33:33.121Z,11.60
2023-05-06T17:43:36.380Z,11.50
2023-05-06T17:53:40.999Z,11.00
2023-05-06T18:03:45.019Z,10.60
2023-05-06T18:13:49.628Z,10.20
2023-05-06T18:23:58.631Z,9.90
2023-05-06T18:34:06.947Z,9.80
2023-05-06T18:44:10.087Z,9.40
2023-05-06T18:54:16.279Z,9.30
2023-05-06T19:04:19.639Z,9.20
2023-05-06T19:14:25.485Z,9.20
2023-05-06T19:24:30.821Z,8.80
2023-05-06T19:34:35.343Z,9.20
2023-05-06T19:44:38.502Z,8.80
2023-05-06T19:54:43.042Z,9.10
2023-05-06T20:04:46.311Z,9.50
2023-05-06T20:14:50.926Z,9.90
2023-05-06T20:24:54.226Z,10.10
2023-05-06T20:34:59.113Z,10.20
2023-05-06T20:45:02.283Z,10.30
2023-05-06T20:55:07.807Z,10.30
2023-05-06T21:05:11.758Z,10.30
2023-05-06T21:15:16.748Z,10.30
2023-05-06T21:25:20.106Z,10.30
2023-05-06T21:35:25.023Z,10.20
2023-05-06T21:45:28.267Z,10.10
2023-05-06T21:55:32.841Z,10.10
2023-05-06T22:05:35.991Z,10.10
2023-05-06T22:15:41.187Z,10.10
2023-05-06T22:25:44.338Z,10.10
2023-05-06T22:35:48.982Z,10.10
2023-05-06T22:45:52.191Z,10.00
2023-05-06T22:55:56.730Z,10.10
2023-05-06T23:05:59.909Z,10.00
2023-05-06T23:16:05.223Z,10.10
2023-05-06T23:26:08.505Z,10.00
2023-05-06T23:36:13.074Z,9.30
2023-05-06T23:46:16.326Z,10.00
2023-05-06T23:56:21.913Z,9.80
